createdAt,value
2022-12-11T00:00:44.984Z,27.20
2022-12-11T00:10:44.468Z,29.00
2022-12-11T00:20:44.402Z,31.90
2022-12-11T00:30:44.060Z,26.90
2022-12-11T00:40:43.871Z,25.90
2022-12-11T00:50:37.532Z,33.30
2022-12-11T01:00:37.338Z,30.50
2022-12-11T01:10:36.882Z,25.50
2022-12-11T01:20:36.609Z,26.80
2022-12-11T01:30:36.140Z,24.40
2022-12-11T01:40:35.919Z,24.00
2022-12-11T01:50:30.029Z,26.20
2022-12-11T02:00:29.699Z,24.30
2022-12-11T02:10:29.203Z,25.50
2022-12-11T02:20:29.307Z,27.60
2022-12-11T02:30:28.490Z,24.30
2022-12-11T02:40:28.151Z,25.20
2022-12-11T02:50:22.256Z,27.60
2022-12-11T03:00:21.906Z,28.10
2022-12-11T03:10:21.549Z,29.30
2022-12-11T03:20:21.353Z,28.20
2022-12-11T03:30:20.836Z,25.10
2022-12-11T03:40:20.639Z,28.40
2022-12-11T03:50:14.897Z,27.30
2022-12-11T04:00:15.009Z,33.70
2022-12-11T04:10:14.038Z,27.00
2022-12-11T04:20:13.891Z,35.70
2022-12-11T04:30:13.351Z,25.50
2022-12-11T04:40:12.981Z,27.70
2022-12-11T04:50:07.114Z,32.80
2022-12-11T05:00:06.955Z,30.20
2022-12-11T05:10:06.407Z,32.00
2022-12-11T05:20:05.946Z,31.70
2022-12-11T05:30:05.593Z,26.10
2022-12-11T05:40:05.535Z,21.30
2022-12-11T05:49:59.549Z,21.00
2022-12-11T05:59:59.199Z,20.30
2022-12-11T06:09:59.166Z,19.50
2022-12-11T06:19:58.629Z,18.70
2022-12-11T06:29:58.101Z,15.90
2022-12-11T06:39:57.737Z,17.90
2022-12-11T06:49:57.479Z,10.90
2022-12-11T06:59:51.648Z,12.70
2022-12-11T07:09:51.117Z,11.70
2022-12-11T07:19:50.895Z,12.10
2022-12-11T07:29:50.518Z,13.20
2022-12-11T07:39:50.471Z,12.40
2022-12-11T07:49:49.945Z,13.80
2022-12-11T07:59:49.260Z,15.40
2022-12-11T08:09:43.359Z,15.40
2022-12-11T08:19:43.024Z,17.10
2022-12-11T08:29:42.630Z,17.70
2022-12-11T08:39:42.669Z,21.80
2022-12-11T08:49:41.922Z,16.20
2022-12-11T08:59:41.722Z,16.60
2022-12-11T09:09:41.208Z,17.80
2022-12-11T09:19:35.505Z,16.20
2022-12-11T09:29:34.954Z,16.60
2022-12-11T09:39:34.751Z,15.70
2022-12-11T09:49:34.230Z,17.00
2022-12-11T09:59:34.182Z,16.30
2022-12-11T10:09:33.625Z,18.10
2022-12-11T10:19:28.064Z,16.80
2022-12-11T10:29:27.890Z,17.80
2022-12-11T10:39:27.620Z,17.50
2022-12-11T10:49:27.077Z,21.80
2022-12-11T10:59:26.591Z,27.00
2022-12-11T11:09:26.327Z,21.20
2022-12-11T11:19:25.828Z,20.30
2022-12-11T11:29:20.237Z,18.90
2022-12-11T11:39:19.591Z,22.90
2022-12-11T11:49:19.348Z,22.50
2022-12-11T11:59:18.816Z,23.00
2022-12-11T12:09:18.686Z,22.70
2022-12-11T12:19:18.029Z,23.00
2022-12-11T12:29:17.956Z,17.20
2022-12-11T12:39:17.285Z,21.30
2022-12-11T12:49:11.701Z,23.10
2022-12-11T12:59:11.145Z,22.40
2022-12-11T13:09:11.106Z,19.60
2022-12-11T13:19:10.381Z,21.40
2022-12-11T13:29:10.176Z,23.50
2022-12-11T13:39:09.627Z,29.60
2022-12-11T13:49:09.432Z,21.50
2022-12-11T13:59:08.912Z,23.00
2022-12-11T14:09:03.268Z,21.40
2022-12-11T14:19:03.018Z,20.50
2022-12-11T14:29:02.663Z,21.00
2022-12-11T14:39:02.130Z,20.20
2022-12-11T14:49:01.928Z,21.70
2022-12-11T14:59:01.562Z,17.50
2022-12-11T15:09:01.047Z,21.10
2022-12-11T15:18:55.384Z,20.00
2022-12-11T15:28:55.036Z,18.60
2022-12-11T15:38:54.635Z,19.50
2022-12-11T15:48:54.452Z,19.20
2022-12-11T15:58:53.892Z,20.60
2022-12-11T16:08:53.854Z,22.10
2022-12-11T16:18:53.142Z,20.60
2022-12-11T16:28:47.409Z,30.10
2022-12-11T16:38:51.570Z,24.00
2022-12-11T16:48:46.684Z,25.10
2022-12-11T16:58:46.279Z,22.50
2022-12-11T17:08:46.325Z,30.40
2022-12-11T17:18:45.605Z,24.90
2022-12-11T17:28:40.338Z,25.60
2022-12-11T17:38:39.849Z,24.60
2022-12-11T17:48:39.387Z,23.90
2022-12-11T17:58:38.868Z,27.60
2022-12-11T18:08:38.686Z,24.20
2022-12-11T18:18:38.117Z,23.60
2022-12-11T18:28:37.729Z,20.40
2022-12-11T18:38:31.826Z,22.70
2022-12-11T18:48:31.834Z,24.30
2022-12-11T18:58:31.435Z,21.20
2022-12-11T19:08:31.134Z,23.00
2022-12-11T19:18:30.334Z,21.90
2022-12-11T19:28:30.132Z,23.90
2022-12-11T19:38:29.599Z,24.90
2022-12-11T19:48:23.726Z,22.20
2022-12-11T19:58:23.481Z,23.80
2022-12-11T20:08:43.306Z,20.60
2022-12-11T20:18:22.577Z,20.90
2022-12-11T20:28:22.219Z,26.60
2022-12-11T20:38:21.971Z,22.10
2022-12-11T20:48:16.242Z,21.60
2022-12-11T20:58:15.840Z,23.10
2022-12-11T21:08:15.558Z,20.40
2022-12-11T21:18:15.090Z,24.70
2022-12-11T21:28:14.758Z,21.60
2022-12-11T21:38:14.379Z,21.30
2022-12-11T21:48:14.153Z,21.40
2022-12-11T21:58:08.249Z,21.10
2022-12-11T22:08:08.167Z,22.60
2022-12-11T22:18:07.741Z,25.60
2022-12-11T22:28:07.348Z,22.30
2022-12-11T22:38:06.651Z,23.70
2022-12-11T22:48:06.453Z,25.10
2022-12-11T22:58:00.840Z,22.80
2022-12-11T23:08:00.630Z,21.30
2022-12-11T23:17:59.950Z,21.90
2022-12-11T23:27:59.918Z,25.20
2022-12-11T23:37:59.216Z,22.10
2022-12-11T23:47:59.034Z,23.50
2022-12-11T23:57:58.751Z,24.80
